Station Historical Data
Daily Summary for April 22, 2017 Units:  English    Metric   Both
« Previous Day
Next Day »
Daily Weekly Monthly Yearly Custom
  High: Low: Average:
Temperature: 54.2 °F 38.6 °F 45 °F
Dew Point: 40.3 °F 33.7 °F 36.1 °F
Humidity: 84% 47% 72%
Wind Speed: 10.0mph 0.0mph 3.2mph
Wind Gust: 14.0mph - -
Wind- - WNW
Pressure: 30.14 in 30.00 in -
Precipitation: 0.00 in    
Historical Graphs
 
 
Tabular Data for April 22, 2017
Time Temperature Dew Point Pressure Wind Wind Speed Wind Gust Humidity Rainfall Rate (Hourly)
00:04 45.3 °F 38.2 °F 30.02 in West 5.0 mph 10.0 mph 76% 0.00 in
00:09 45.2 °F 38.1 °F 30.02 in West 4.0 mph 10.0 mph 76% 0.00 in
00:14 45.2 °F 38.1 °F 30.02 in West 5.0 mph 9.0 mph 76% 0.00 in
00:19 45.1 °F 38.3 °F 30.02 in West 4.0 mph 9.0 mph 77% 0.00 in
00:24 45.1 °F 38.3 °F 30.02 in West 3.0 mph 9.0 mph 77% 0.00 in
00:29 45.0 °F 38.6 °F 30.03 in WSW 2.0 mph 8.0 mph 78% 0.00 in
00:34 45.0 °F 38.2 °F 30.03 in West 6.0 mph 10.0 mph 77% 0.00 in
00:39 44.9 °F 38.1 °F 30.03 in West 3.0 mph 7.0 mph 77% 0.00 in
00:44 44.8 °F 38.0 °F 30.03 in West 4.0 mph 8.0 mph 77% 0.00 in
00:49 44.8 °F 38.4 °F 30.03 in West 4.0 mph 8.0 mph 78% 0.00 in
00:54 44.8 °F 38.0 °F 30.03 in WNW 4.0 mph 10.0 mph 77% 0.00 in
00:59 44.6 °F 38.2 °F 30.03 in NNW 1.0 mph 6.0 mph 78% 0.00 in
01:04 44.3 °F 37.9 °F 30.03 in NW 3.0 mph 8.0 mph 78% 0.00 in
01:09 44.0 °F 37.9 °F 30.03 in WNW 10.0 mph 10.0 mph 79% 0.00 in
01:14 43.8 °F 37.4 °F 30.03 in NW 4.0 mph 10.0 mph 78% 0.00 in
01:19 43.6 °F 37.2 °F 30.03 in NW 5.0 mph 10.0 mph 78% 0.00 in
01:24 43.4 °F 37.3 °F 30.03 in NW 4.0 mph 8.0 mph 79% 0.00 in
01:29 43.2 °F 37.1 °F 30.03 in WNW 6.0 mph 8.0 mph 79% 0.00 in
01:34 43.1 °F 37.0 °F 30.02 in West 7.0 mph 9.0 mph 79% 0.00 in
01:39 43.0 °F 36.6 °F 30.02 in West 5.0 mph 8.0 mph 78% 0.00 in
01:44 43.0 °F 36.6 °F 30.02 in WNW 5.0 mph 12.0 mph 78% 0.00 in
01:49 42.9 °F 36.5 °F 30.02 in West 6.0 mph 9.0 mph 78% 0.00 in
01:54 42.8 °F 36.4 °F 30.02 in WNW 4.0 mph 7.0 mph 78% 0.00 in
01:59 42.7 °F 36.3 °F 30.02 in West 6.0 mph 8.0 mph 78% 0.00 in
02:04 42.4 °F 36.0 °F 30.02 in WNW 5.0 mph 10.0 mph 78% 0.00 in
02:09 42.0 °F 35.6 °F 30.02 in WNW 7.0 mph 14.0 mph 78% 0.00 in
02:14 41.8 °F 35.4 °F 30.02 in WNW 5.0 mph 14.0 mph 78% 0.00 in
02:19 41.5 °F 35.2 °F 30.02 in WNW 6.0 mph 14.0 mph 78% 0.00 in
02:24 41.3 °F 35.3 °F 30.02 in WNW 5.0 mph 11.0 mph 79% 0.00 in
02:29 40.9 °F 34.9 °F 30.01 in West 4.0 mph 6.0 mph 79% 0.00 in
02:34 40.8 °F 35.1 °F 30.01 in WNW 3.0 mph 7.0 mph 80% 0.00 in
02:39 40.7 °F 35.0 °F 30.01 in WNW 3.0 mph 7.0 mph 80% 0.00 in
02:44 40.6 °F 34.9 °F 30.01 in WNW 3.0 mph 7.0 mph 80% 0.00 in
02:49 40.5 °F 34.8 °F 30.00 in WNW 3.0 mph 6.0 mph 80% 0.00 in
02:54 40.3 °F 34.6 °F 30.01 in West 3.0 mph 6.0 mph 80% 0.00 in
02:59 40.4 °F 35.0 °F 30.00 in West 1.0 mph 3.0 mph 81% 0.00 in
03:04 40.6 °F 35.2 °F 30.00 in West 2.0 mph 4.0 mph 81% 0.00 in
03:09 40.9 °F 35.2 °F 30.01 in West 2.0 mph 7.0 mph 80% 0.00 in
03:14 41.3 °F 35.6 °F 30.01 in West 3.0 mph 7.0 mph 80% 0.00 in
03:19 41.5 °F 35.8 °F 30.01 in West 2.0 mph 7.0 mph 80% 0.00 in
03:24 41.8 °F 35.8 °F 30.00 in West 3.0 mph 7.0 mph 79% 0.00 in
03:29 41.9 °F 35.9 °F 30.01 in WNW 2.0 mph 7.0 mph 79% 0.00 in
03:34 41.8 °F 35.8 °F 30.00 in West 3.0 mph 6.0 mph 79% 0.00 in
03:44 41.9 °F 35.9 °F 30.01 in West 3.0 mph 7.0 mph 79% 0.00 in
03:49 41.9 °F 35.9 °F 30.00 in West 4.0 mph 8.0 mph 79% 0.00 in
03:54 41.9 °F 35.9 °F 30.01 in West 4.0 mph 8.0 mph 79% 0.00 in
03:59 41.9 °F 36.2 °F 30.01 in WNW 4.0 mph 7.0 mph 80% 0.00 in
04:04 41.8 °F 36.1 °F 30.00 in West 4.0 mph 8.0 mph 80% 0.00 in
04:09 41.8 °F 36.1 °F 30.00 in West 6.0 mph 9.0 mph 80% 0.00 in
04:14 41.8 °F 36.1 °F 30.01 in WNW 3.0 mph 7.0 mph 80% 0.00 in
04:19 41.8 °F 36.1 °F 30.01 in West 3.0 mph 8.0 mph 80% 0.00 in
04:24 41.8 °F 36.1 °F 30.01 in West 2.0 mph 8.0 mph 80% 0.00 in
04:29 41.8 °F 36.1 °F 30.01 in WNW 2.0 mph 5.0 mph 80% 0.00 in
04:34 41.8 °F 36.1 °F 30.01 in West 5.0 mph 7.0 mph 80% 0.00 in
04:39 41.8 °F 36.1 °F 30.01 in WNW 4.0 mph 7.0 mph 80% 0.00 in
04:44 41.8 °F 36.4 °F 30.01 in WNW 3.0 mph 7.0 mph 81% 0.00 in
04:49 41.8 °F 36.1 °F 30.01 in WNW 3.0 mph 9.0 mph 80% 0.00 in
04:54 41.8 °F 36.4 °F 30.01 in WNW 4.0 mph 9.0 mph 81% 0.00 in
04:59 41.8 °F 36.4 °F 30.01 in WNW 1.0 mph 5.0 mph 81% 0.00 in
05:04 41.8 °F 36.4 °F 30.01 in WNW 1.0 mph 6.0 mph 81% 0.00 in
05:09 41.8 °F 36.4 °F 30.02 in West 3.0 mph 6.0 mph 81% 0.00 in
05:14 41.8 °F 36.4 °F 30.02 in West 3.0 mph 5.0 mph 81% 0.00 in
05:19 41.8 °F 36.4 °F 30.02 in WNW 3.0 mph 6.0 mph 81% 0.00 in
05:24 41.8 °F 36.4 °F 30.02 in WNW 3.0 mph 8.0 mph 81% 0.00 in
05:29 41.7 °F 36.3 °F 30.02 in West 1.0 mph 7.0 mph 81% 0.00 in
05:34 41.8 °F 36.4 °F 30.02 in West 2.0 mph 8.0 mph 81% 0.00 in
05:39 41.7 °F 36.3 °F 30.02 in WNW 3.0 mph 6.0 mph 81% 0.00 in
05:44 41.7 °F 36.3 °F 30.02 in West 3.0 mph 5.0 mph 81% 0.00 in
05:49 41.6 °F 36.2 °F 30.02 in WNW 3.0 mph 6.0 mph 81% 0.00 in
05:54 41.5 °F 36.1 °F 30.02 in WNW 3.0 mph 6.0 mph 81% 0.00 in
05:59 41.3 °F 35.9 °F 30.02 in WNW 3.0 mph 8.0 mph 81% 0.00 in
06:04 41.2 °F 36.1 °F 30.02 in NNW 4.0 mph 7.0 mph 82% 0.00 in
06:09 41.3 °F 36.2 °F 30.02 in WNW 3.0 mph 7.0 mph 82% 0.00 in
06:14 41.2 °F 36.1 °F 30.02 in WNW 3.0 mph 7.0 mph 82% 0.00 in
06:19 40.9 °F 35.8 °F 30.02 in West 3.0 mph 7.0 mph 82% 0.00 in
06:24 40.6 °F 35.5 °F 30.02 in WNW 3.0 mph 7.0 mph 82% 0.00 in
06:29 40.4 °F 35.6 °F 30.02 in WNW 3.0 mph 5.0 mph 83% 0.00 in
06:34 40.2 °F 35.4 °F 30.03 in West 2.0 mph 5.0 mph 83% 0.00 in
06:39 40.1 °F 35.4 °F 30.03 in WNW 2.0 mph 5.0 mph 83% 0.00 in
06:44 40.0 °F 35.3 °F 30.03 in WNW 1.0 mph 4.0 mph 83% 0.00 in
06:49 40.0 °F 35.6 °F 30.03 in WNW 1.0 mph 2.0 mph 84% 0.00 in
06:54 40.0 °F 35.6 °F 30.04 in WNW 2.0 mph 3.0 mph 84% 0.00 in
06:59 40.1 °F 35.7 °F 30.04 in West 1.0 mph 3.0 mph 84% 0.00 in
07:04 40.4 °F 35.9 °F 30.03 in West 1.0 mph 5.0 mph 84% 0.00 in
07:09 40.9 °F 36.4 °F 30.03 in West 2.0 mph 5.0 mph 84% 0.00 in
07:14 41.1 °F 36.6 °F 30.03 in WNW 2.0 mph 5.0 mph 84% 0.00 in
07:19 41.3 °F 36.8 °F 30.04 in WNW 2.0 mph 5.0 mph 84% 0.00 in
07:24 41.4 °F 36.6 °F 30.04 in WNW 3.0 mph 6.0 mph 83% 0.00 in
07:29 41.5 °F 36.7 °F 30.04 in WNW 3.0 mph 6.0 mph 83% 0.00 in
07:34 41.6 °F 36.8 °F 30.04 in WNW 5.0 mph 7.0 mph 83% 0.00 in
07:39 41.7 °F 36.9 °F 30.04 in Calm   6.0 mph 83% 0.00 in
07:44 41.7 °F 36.6 °F 30.04 in NW 8.0 mph 9.0 mph 82% 0.00 in
07:49 41.5 °F 35.8 °F 30.04 in WNW 6.0 mph 13.0 mph 80% 0.00 in
07:54 41.5 °F 35.5 °F 30.05 in WNW 4.0 mph 12.0 mph 79% 0.00 in
07:59 41.4 °F 35.1 °F 30.06 in NNW 4.0 mph 10.0 mph 78% 0.00 in
08:04 41.4 °F 35.1 °F 30.06 in WNW 6.0 mph 8.0 mph 78% 0.00 in
08:09 41.7 °F 35.3 °F 30.06 in NW 5.0 mph 10.0 mph 78% 0.00 in
08:14 41.8 °F 35.1 °F 30.06 in NW 4.0 mph 10.0 mph 77% 0.00 in
08:19 41.9 °F 35.2 °F 30.07 in NW 4.0 mph 9.0 mph 77% 0.00 in
08:24 42.2 °F 35.2 °F 30.07 in NW 4.0 mph 9.0 mph 76% 0.00 in
08:29 42.3 °F 35.6 °F 30.07 in WNW 4.0 mph 8.0 mph 77% 0.00 in
08:34 42.4 °F 35.4 °F 30.07 in WNW 1.0 mph 7.0 mph 76% 0.00 in
08:39 42.3 °F 34.9 °F 30.07 in WNW 4.0 mph 10.0 mph 75% 0.00 in
08:44 42.3 °F 34.9 °F 30.07 in WNW 4.0 mph 10.0 mph 75% 0.00 in
08:49 42.4 °F 35.0 °F 30.07 in NW 6.0 mph 8.0 mph 75% 0.00 in
08:54 42.5 °F 35.5 °F 30.07 in West 6.0 mph 6.0 mph 76% 0.00 in
08:59 42.4 °F 35.4 °F 30.07 in NNW 2.0 mph 7.0 mph 76% 0.00 in
09:04 42.3 °F 35.3 °F 30.07 in NW 4.0 mph 9.0 mph 76% 0.00 in
09:09 42.2 °F 34.8 °F 30.07 in NNW 4.0 mph 9.0 mph 75% 0.00 in
09:14 42.4 °F 35.0 °F 30.07 in NW 3.0 mph 8.0 mph 75% 0.00 in
09:19 42.5 °F 35.1 °F 30.08 in NW 4.0 mph 8.0 mph 75% 0.00 in
09:24 42.5 °F 35.1 °F 30.08 in NW 6.0 mph 8.0 mph 75% 0.00 in
09:29 42.3 °F 34.9 °F 30.08 in NW 3.0 mph 8.0 mph 75% 0.00 in
09:34 42.3 °F 34.9 °F 30.08 in NNW 4.0 mph 8.0 mph 75% 0.00 in
09:39 42.5 °F 35.1 °F 30.09 in NNW 3.0 mph 6.0 mph 75% 0.00 in
09:44 42.5 °F 35.1 °F 30.09 in WNW 4.0 mph 7.0 mph 75% 0.00 in
09:49 42.7 °F 35.3 °F 30.09 in NW 3.0 mph 6.0 mph 75% 0.00 in
09:54 42.6 °F 34.9 °F 30.09 in NNW 4.0 mph 9.0 mph 74% 0.00 in
09:59 42.5 °F 34.8 °F 30.09 in NW 4.0 mph 8.0 mph 74% 0.00 in
10:04 42.7 °F 35.3 °F 30.09 in NNW 4.0 mph 8.0 mph 75% 0.00 in
10:09 42.9 °F 35.5 °F 30.09 in NW 3.0 mph 7.0 mph 75% 0.00 in
10:14 43.0 °F 35.6 °F 30.09 in NW 3.0 mph 7.0 mph 75% 0.00 in
10:19 43.5 °F 35.8 °F 30.09 in NW 3.0 mph 6.0 mph 74% 0.00 in
10:24 43.7 °F 36.0 °F 30.09 in West 6.0 mph 8.0 mph 74% 0.00 in
10:29 43.5 °F 35.8 °F 30.08 in WNW 3.0 mph 8.0 mph 74% 0.00 in
10:34 43.8 °F 36.4 °F 30.09 in NW 4.0 mph 9.0 mph 75% 0.00 in
10:39 43.8 °F 35.7 °F 30.09 in NW 4.0 mph 9.0 mph 73% 0.00 in
10:44 43.8 °F 36.0 °F 30.09 in NW 2.0 mph 9.0 mph 74% 0.00 in
10:49 44.2 °F 36.4 °F 30.09 in NW 3.0 mph 8.0 mph 74% 0.00 in
10:54 44.5 °F 36.0 °F 30.10 in NW 3.0 mph 10.0 mph 72% 0.00 in
10:59 44.3 °F 35.8 °F 30.10 in WNW 5.0 mph 8.0 mph 72% 0.00 in
11:04 44.1 °F 36.0 °F 30.10 in NW 4.0 mph 9.0 mph 73% 0.00 in
11:09 44.3 °F 36.2 °F 30.10 in North 3.0 mph 7.0 mph 73% 0.00 in
11:14 44.5 °F 36.4 °F 30.10 in NNW 4.0 mph 7.0 mph 73% 0.00 in
11:19 44.0 °F 35.9 °F 30.10 in NNW 1.0 mph 10.0 mph 73% 0.00 in
11:24 44.2 °F 36.4 °F 30.09 in WNW 4.0 mph 8.0 mph 74% 0.00 in
11:29 44.2 °F 36.1 °F 30.09 in NW 5.0 mph 7.0 mph 73% 0.00 in
11:34 44.2 °F 36.1 °F 30.09 in NW 3.0 mph 8.0 mph 73% 0.00 in
11:39 44.2 °F 36.4 °F 30.09 in NW 4.0 mph 8.0 mph 74% 0.00 in
11:44 44.4 °F 36.3 °F 30.09 in NNW 4.0 mph 8.0 mph 73% 0.00 in
11:49 44.5 °F 36.4 °F 30.09 in NW 4.0 mph 8.0 mph 73% 0.00 in
11:54 44.5 °F 36.0 °F 30.09 in NNW 3.0 mph 8.0 mph 72% 0.00 in
11:59 44.3 °F 35.5 °F 30.09 in NNW 5.0 mph 9.0 mph 71% 0.00 in
12:04 45.0 °F 36.2 °F 30.09 in NNW 4.0 mph 9.0 mph 71% 0.00 in
12:09 45.2 °F 36.4 °F 30.09 in NNW 5.0 mph 8.0 mph 71% 0.00 in
12:14 45.5 °F 36.6 °F 30.09 in NNW 6.0 mph 7.0 mph 71% 0.00 in
12:19 45.7 °F 36.8 °F 30.09 in NW 2.0 mph 7.0 mph 71% 0.00 in
12:24 45.4 °F 35.8 °F 30.09 in North 2.0 mph 8.0 mph 69% 0.00 in
12:29 46.0 °F 36.8 °F 30.09 in NW 2.0 mph 7.0 mph 70% 0.00 in
12:34 46.1 °F 36.9 °F 30.09 in NW 3.0 mph 7.0 mph 70% 0.00 in
12:39 46.4 °F 36.8 °F 30.09 in NNW 3.0 mph 7.0 mph 69% 0.00 in
12:44 46.3 °F 36.3 °F 30.09 in NNW 4.0 mph 9.0 mph 68% 0.00 in
12:49 46.9 °F 37.6 °F 30.09 in NNW 4.0 mph 9.0 mph 70% 0.00 in
12:54 46.3 °F 35.9 °F 30.09 in NNW 3.0 mph 8.0 mph 67% 0.00 in
12:59 46.7 °F 36.7 °F 30.09 in NW 1.0 mph 7.0 mph 68% 0.00 in
13:04 46.4 °F 35.7 °F 30.09 in NNW 4.0 mph 10.0 mph 66% 0.00 in
13:09 46.3 °F 35.9 °F 30.09 in North 3.0 mph 10.0 mph 67% 0.00 in
13:14 46.5 °F 36.5 °F 30.08 in NNW 6.0 mph 7.0 mph 68% 0.00 in
13:19 46.5 °F 36.1 °F 30.08 in WNW 3.0 mph 10.0 mph 67% 0.00 in
13:24 47.1 °F 36.3 °F 30.09 in NNW 3.0 mph 8.0 mph 66% 0.00 in
13:29 47.3 °F 36.9 °F 30.09 in WNW 7.0 mph 8.0 mph 67% 0.00 in
13:34 47.1 °F 35.9 °F 30.09 in NNW 4.0 mph 8.0 mph 65% 0.00 in
13:39 47.0 °F 35.8 °F 30.09 in NNW 4.0 mph 11.0 mph 65% 0.00 in
13:44 47.4 °F 37.4 °F 30.09 in NW 4.0 mph 9.0 mph 68% 0.00 in
13:49 47.9 °F 36.7 °F 30.09 in WNW 4.0 mph 7.0 mph 65% 0.00 in
13:54 47.8 °F 36.2 °F 30.09 in NNW 7.0 mph 12.0 mph 64% 0.00 in
13:59 47.6 °F 36.8 °F 30.09 in NNW 5.0 mph 12.0 mph 66% 0.00 in
14:04 48.4 °F 37.2 °F 30.09 in NNW 4.0 mph 9.0 mph 65% 0.00 in
14:09 48.7 °F 37.5 °F 30.10 in NNW 4.0 mph 8.0 mph 65% 0.00 in
14:14 49.1 °F 37.4 °F 30.10 in NW 4.0 mph 9.0 mph 64% 0.00 in
14:19 49.6 °F 37.1 °F 30.10 in NW 4.0 mph 9.0 mph 62% 0.00 in
14:24 49.7 °F 38.4 °F 30.10 in North 8.0 mph 8.0 mph 65% 0.00 in
14:29 50.2 °F 37.3 °F 30.10 in NNW 4.0 mph 8.0 mph 61% 0.00 in
14:34 49.2 °F 37.9 °F 30.10 in North 4.0 mph 8.0 mph 65% 0.00 in
14:39 49.3 °F 37.2 °F 30.09 in NNW 3.0 mph 7.0 mph 63% 0.00 in
14:44 51.0 °F 39.2 °F 30.09 in NW 4.0 mph 8.0 mph 64% 0.00 in
14:49 50.5 °F 37.5 °F 30.09 in NNE 6.0 mph 6.0 mph 61% 0.00 in
14:54 49.9 °F 37.8 °F 30.09 in NNW 4.0 mph 8.0 mph 63% 0.00 in
14:59 50.8 °F 37.4 °F 30.09 in NNW 4.0 mph 10.0 mph 60% 0.00 in
15:04 49.7 °F 37.2 °F 30.09 in NNW 4.0 mph 10.0 mph 62% 0.00 in
15:09 49.0 °F 37.3 °F 30.09 in NNW 3.0 mph 8.0 mph 64% 0.00 in
15:14 51.4 °F 38.0 °F 30.09 in NNW 3.0 mph 9.0 mph 60% 0.00 in
15:19 52.5 °F 39.0 °F 30.09 in NW 4.0 mph 7.0 mph 60% 0.00 in
15:24 51.9 °F 38.0 °F 30.09 in NNW 4.0 mph 8.0 mph 59% 0.00 in
15:29 53.0 °F 40.3 °F 30.09 in NNW 4.0 mph 9.0 mph 62% 0.00 in
15:34 51.5 °F 37.2 °F 30.09 in ENE 3.0 mph 8.0 mph 58% 0.00 in
15:39 51.8 °F 38.3 °F 30.09 in Calm   7.0 mph 60% 0.00 in
15:44 52.5 °F 37.7 °F 30.10 in NW 8.0 mph 13.0 mph 57% 0.00 in
15:49 52.0 °F 38.5 °F 30.09 in West 5.0 mph 8.0 mph 60% 0.00 in
15:54 52.8 °F 38.4 °F 30.10 in NNW 5.0 mph 10.0 mph 58% 0.00 in
15:59 53.3 °F 38.9 °F 30.09 in NW 4.0 mph 10.0 mph 58% 0.00 in
16:04 53.2 °F 37.4 °F 30.09 in NW 4.0 mph 9.0 mph 55% 0.00 in
16:09 53.2 °F 38.8 °F 30.09 in NNW 3.0 mph 8.0 mph 58% 0.00 in
16:14 53.4 °F 39.4 °F 30.09 in North 4.0 mph 9.0 mph 59% 0.00 in
16:19 53.3 °F 37.1 °F 30.09 in NNW 2.0 mph 11.0 mph 54% 0.00 in
16:24 52.4 °F 36.7 °F 30.09 in NW 4.0 mph 10.0 mph 55% 0.00 in
16:29 53.0 °F 37.7 °F 30.09 in NNW 5.0 mph 12.0 mph 56% 0.00 in
16:34 53.1 °F 36.4 °F 30.09 in North 4.0 mph 12.0 mph 53% 0.00 in
16:39 53.5 °F 37.3 °F 30.09 in NNW 3.0 mph 8.0 mph 54% 0.00 in
16:44 54.0 °F 38.2 °F 30.09 in NW 1.0 mph 5.0 mph 55% 0.00 in
16:49 53.0 °F 36.3 °F 30.09 in NNE 4.0 mph 8.0 mph 53% 0.00 in
16:54 53.2 °F 37.4 °F 30.08 in North 2.0 mph 7.0 mph 55% 0.00 in
16:59 53.4 °F 37.2 °F 30.09 in North 3.0 mph 7.0 mph 54% 0.00 in
17:04 53.7 °F 36.5 °F 30.08 in NNW 3.0 mph 9.0 mph 52% 0.00 in
17:09 54.2 °F 37.4 °F 30.08 in North 2.0 mph 7.0 mph 53% 0.00 in
17:14 54.0 °F 36.8 °F 30.08 in NNW 2.0 mph 8.0 mph 52% 0.00 in
17:19 53.5 °F 35.3 °F 30.09 in NNW 3.0 mph 5.0 mph 50% 0.00 in
17:24 53.7 °F 36.0 °F 30.09 in NNW 2.0 mph 11.0 mph 51% 0.00 in
17:29 53.2 °F 34.5 °F 30.09 in NW 4.0 mph 11.0 mph 49% 0.00 in
17:34 52.9 °F 33.7 °F 30.09 in NW 3.0 mph 7.0 mph 48% 0.00 in
17:39 52.5 °F 33.9 °F 30.09 in NNW 3.0 mph 7.0 mph 49% 0.00 in
17:44 52.7 °F 35.1 °F 30.09 in NNW 4.0 mph 9.0 mph 51% 0.00 in
17:49 53.0 °F 34.3 °F 30.09 in WNW 2.0 mph 8.0 mph 49% 0.00 in
17:54 53.3 °F 35.1 °F 30.09 in NNE 3.0 mph 8.0 mph 50% 0.00 in
17:59 53.7 °F 34.5 °F 30.09 in North 4.0 mph 8.0 mph 48% 0.00 in
18:04 53.7 °F 35.0 °F 30.08 in NNE 3.0 mph 7.0 mph 49% 0.00 in
18:09 53.5 °F 34.3 °F 30.08 in NNW 6.0 mph 7.0 mph 48% 0.00 in
18:14 53.6 °F 35.4 °F 30.08 in North 4.0 mph 9.0 mph 50% 0.00 in
18:19 53.4 °F 33.7 °F 30.08 in NNW 4.0 mph 8.0 mph 47% 0.00 in
18:24 53.5 °F 34.8 °F 30.08 in NNW 4.0 mph 7.0 mph 49% 0.00 in
18:29 53.7 °F 35.0 °F 30.08 in NNE 3.0 mph 7.0 mph 49% 0.00 in
18:34 53.5 °F 34.8 °F 30.08 in North 4.0 mph 10.0 mph 49% 0.00 in
18:39 53.2 °F 35.5 °F 30.08 in North 3.0 mph 10.0 mph 51% 0.00 in
18:44 53.1 °F 34.9 °F 30.08 in NNW 3.0 mph 6.0 mph 50% 0.00 in
18:49 51.7 °F 36.9 °F 30.08 in WNW 3.0 mph 7.0 mph 57% 0.00 in
18:54 50.4 °F 37.0 °F 30.08 in WSW 3.0 mph 8.0 mph 60% 0.00 in
18:59 49.9 °F 37.0 °F 30.08 in WSW 3.0 mph 8.0 mph 61% 0.00 in
19:04 49.6 °F 37.1 °F 30.08 in SW 6.0 mph 8.0 mph 62% 0.00 in
19:09 49.0 °F 36.5 °F 30.08 in WSW 3.0 mph 8.0 mph 62% 0.00 in
19:14 48.7 °F 36.7 °F 30.08 in West 2.0 mph 4.0 mph 63% 0.00 in
19:19 48.3 °F 36.3 °F 30.08 in SW 5.0 mph 6.0 mph 63% 0.00 in
19:24 47.9 °F 36.3 °F 30.09 in WSW 4.0 mph 7.0 mph 64% 0.00 in
19:29 47.5 °F 36.7 °F 30.09 in WSW 1.0 mph 5.0 mph 66% 0.00 in
19:34 47.2 °F 36.4 °F 30.09 in WSW 3.0 mph 5.0 mph 66% 0.00 in
19:39 47.0 °F 36.2 °F 30.09 in WSW 3.0 mph 6.0 mph 66% 0.00 in
19:44 46.7 °F 36.3 °F 30.09 in WSW 3.0 mph 7.0 mph 67% 0.00 in
19:49 46.4 °F 36.0 °F 30.09 in SW 4.0 mph 7.0 mph 67% 0.00 in
19:54 46.2 °F 36.2 °F 30.09 in SW 4.0 mph 8.0 mph 68% 0.00 in
19:59 45.9 °F 36.3 °F 30.09 in WSW 5.0 mph 6.0 mph 69% 0.00 in
20:04 45.6 °F 36.0 °F 30.09 in SW 4.0 mph 7.0 mph 69% 0.00 in
20:09 45.4 °F 36.5 °F 30.09 in SW 2.0 mph 7.0 mph 71% 0.00 in
20:14 44.9 °F 36.1 °F 30.09 in SW 2.0 mph 5.0 mph 71% 0.00 in
20:19 44.8 °F 36.3 °F 30.09 in WSW 2.0 mph 6.0 mph 72% 0.00 in
20:24 44.8 °F 36.3 °F 30.09 in SW 2.0 mph 5.0 mph 72% 0.00 in
20:29 44.6 °F 36.5 °F 30.09 in SW 3.0 mph 5.0 mph 73% 0.00 in
20:34 44.5 °F 36.4 °F 30.10 in SW 3.0 mph 5.0 mph 73% 0.00 in
20:39 44.4 °F 36.3 °F 30.09 in SW 3.0 mph 8.0 mph 73% 0.00 in
20:44 44.3 °F 36.2 °F 30.10 in WSW 4.0 mph 8.0 mph 73% 0.00 in
20:49 44.2 °F 36.1 °F 30.10 in West 2.0 mph 6.0 mph 73% 0.00 in
20:54 44.1 °F 36.0 °F 30.10 in West 3.0 mph 6.0 mph 73% 0.00 in
20:59 44.0 °F 35.9 °F 30.10 in WSW 3.0 mph 6.0 mph 73% 0.00 in
21:04 43.8 °F 35.7 °F 30.10 in WSW 3.0 mph 6.0 mph 73% 0.00 in
21:09 43.6 °F 35.5 °F 30.10 in WSW 2.0 mph 4.0 mph 73% 0.00 in
21:14 43.6 °F 35.5 °F 30.11 in West 2.0 mph 5.0 mph 73% 0.00 in
21:19 43.7 °F 35.6 °F 30.10 in WSW 3.0 mph 5.0 mph 73% 0.00 in
21:24 43.7 °F 35.6 °F 30.11 in West 3.0 mph 5.0 mph 73% 0.00 in
21:29 43.5 °F 35.4 °F 30.11 in West 2.0 mph 5.0 mph 73% 0.00 in
21:34 43.5 °F 35.4 °F 30.11 in West 2.0 mph 4.0 mph 73% 0.00 in
21:39 43.4 °F 35.3 °F 30.11 in West 3.0 mph 4.0 mph 73% 0.00 in
21:44 43.3 °F 35.2 °F 30.11 in West 3.0 mph 3.0 mph 73% 0.00 in
21:49 43.2 °F 35.5 °F 30.12 in West 2.0 mph 3.0 mph 74% 0.00 in
21:54 43.0 °F 35.3 °F 30.12 in West 2.0 mph 3.0 mph 74% 0.00 in
21:59 42.7 °F 35.3 °F 30.11 in West 1.0 mph 3.0 mph 75% 0.00 in
22:04 42.5 °F 35.1 °F 30.11 in West 1.0 mph 3.0 mph 75% 0.00 in
22:09 42.3 °F 35.3 °F 30.11 in West 1.0 mph 2.0 mph 76% 0.00 in
22:14 42.0 °F 35.0 °F 30.11 in Calm   2.0 mph 76% 0.00 in
22:19 41.9 °F 35.2 °F 30.11 in Calm     77% 0.00 in
22:24 41.8 °F 35.1 °F 30.11 in Calm     77% 0.00 in
22:29 41.6 °F 34.9 °F 30.11 in Calm   2.0 mph 77% 0.00 in
22:34 41.3 °F 34.6 °F 30.12 in Calm   2.0 mph 77% 0.00 in
22:39 41.0 °F 34.7 °F 30.12 in Calm   1.0 mph 78% 0.00 in
22:44 41.1 °F 34.8 °F 30.12 in Calm   2.0 mph 78% 0.00 in
22:49 41.2 °F 34.9 °F 30.12 in Calm   2.0 mph 78% 0.00 in
22:54 41.2 °F 34.9 °F 30.12 in West 1.0 mph 3.0 mph 78% 0.00 in
22:59 41.0 °F 34.7 °F 30.12 in Calm   3.0 mph 78% 0.00 in
23:04 40.5 °F 34.5 °F 30.12 in Calm   2.0 mph 79% 0.00 in
23:09 39.8 °F 34.1 °F 30.12 in Calm     80% 0.00 in
23:14 39.7 °F 34.3 °F 30.12 in Calm     81% 0.00 in
23:19 39.7 °F 34.3 °F 30.12 in Calm   2.0 mph 81% 0.00 in
23:24 39.8 °F 34.4 °F 30.13 in Calm   2.0 mph 81% 0.00 in
23:29 40.0 °F 34.6 °F 30.13 in Calm   2.0 mph 81% 0.00 in
23:34 39.7 °F 34.3 °F 30.13 in Calm     81% 0.00 in
23:39 39.6 °F 34.2 °F 30.13 in Calm     81% 0.00 in
23:44 39.5 °F 34.5 °F 30.13 in Calm     82% 0.00 in
23:49 38.9 °F 33.9 °F 30.13 in Calm     82% 0.00 in
23:54 38.6 °F 33.9 °F 30.14 in Calm     83% 0.00 in
23:59 38.6 °F 34.2 °F 30.14 in Calm     84% 0.00 in
Buffalo, New York, USA
Compliments of Weather Underground - 2.5 mb